Prominent Ace — HPWB — position and weather

sailwx.info

Track history (hours):
 
Tides and Currents Weather Stations Pressure Air Temp Water Temp Dewpoint Dewpoint Depression Visibility Wind Speed Wind Dir Waves Ship Positions

Prominent Ace

Last reported at 2017-Sep-13 04:19 UTC. Time now 2017-Sep-25 09:40 UTC.
Position N 30°58' E 032°19'.
Warning: this ship's position is 12 days out of date.

Length 199.5 m; beam 32.3 m.

Type: Cargo ship. MMSI: 356181000.

Date/timePositionNaut miles runAvg speedWind from/ knotsBaromVisibWave heightAir tempDewpointWater temp
2017-Sep-13 04:19N 30°58' E 032°19'3 9.7
2017-Sep-13 04:00N 31°02' E 032°19'18 8.8
2017-Sep-13 01:58N 31°19' E 032°22'3 6.2
2017-Sep-13 01:30N 31°22' E 032°23'2 4.3
2017-Sep-13 01:01N 31°23' E 032°21'1 1.5
2017-Sep-13 00:28N 31°23' E 032°20'0 0.2
2017-Sep-12 23:58N 31°23' E 032°20'0 0.0
2017-Sep-12 23:28N 31°23' E 032°20'0 0.0
2017-Sep-12 22:58N 31°23' E 032°20'0 0.0
2017-Sep-12 22:28N 31°23' E 032°20'0 0.0
2017-Sep-12 21:46N 31°23' E 032°20'0 0.0
2017-Sep-12 20:37N 31°23' E 032°20'0 0.0
2017-Sep-12 19:10N 31°23' E 032°20'0 0.1
2017-Sep-12 18:58N 31°23' E 032°20'1 1.5
2017-Sep-12 18:29N 31°23' E 032°20'612.6
2017-Sep-12 18:00N 31°28' E 032°16'813.7
2017-Sep-12 17:27N 31°34' E 032°10'613.8
2017-Sep-12 17:00N 31°38' E 032°05'813.7
2017-Sep-12 16:27N 31°43' E 031°58'613.9
2017-Sep-12 16:00N 31°47' E 031°52'714.0
2017-Sep-12 15:30N 31°50' E 031°45'713.6
2017-Sep-12 15:00N 31°52' E 031°38'2413.3
2017-Sep-12 13:10N 32°02' E 031°11'213.0
2017-Sep-12 13:00N 32°03' E 031°09'1513.2
2017-Sep-12 11:53N 32°09' E 030°53'513.5
2017-Sep-12 11:30N 32°11' E 030°47'1113.8
2017-Sep-12 10:42N 32°15' E 030°35'813.1
2017-Sep-12 10:06N 32°18' E 030°27'113.0
2017-Sep-12 10:00N 32°19' E 030°25'713.0
2017-Sep-12 09:30N 32°21' E 030°18'713.0
2017-Sep-12 09:00N 32°24' E 030°11'41013.6
2017-Sep-11 02:49N 35°27' E 022°49'26314.8
2017-Sep-10 09:06N 38°56' E 019°29'314.5
2017-Sep-10 08:54N 38°59' E 019°27'1014.9
2017-Sep-10 08:13N 39°08' E 019°22'314.9
2017-Sep-10 08:00N 39°11' E 019°20'2315.8
2017-Sep-10 06:33N 39°32' E 019°08'118.1
2017-Sep-10 06:28N 39°33' E 019°07'817.7
2017-Sep-10 06:00N 39°41' E 019°03'34814.5
2017-Sep-09 06:05N 44°07' E 014°02'117.5
2017-Sep-09 06:01N 44°08' E 014°01'815.9
2017-Sep-09 05:31N 44°15' E 013°55'714.7
2017-Sep-09 05:00N 44°21' E 013°49'714.7
2017-Sep-09 04:30N 44°27' E 013°43'714.4
2017-Sep-09 04:00N 44°33' E 013°37'714.7
2017-Sep-09 03:30N 44°39' E 013°32'714.8
2017-Sep-09 03:01N 44°45' E 013°26'714.6
2017-Sep-09 02:30N 44°51' E 013°20'714.8
2017-Sep-09 02:00N 44°57' E 013°15'715.0
2017-Sep-09 01:31N 45°04' E 013°10'815.4
2017-Sep-09 01:01N 45°11' E 013°05'815.4
2017-Sep-09 00:31N 45°18' E 013°03'714.0
2017-Sep-09 00:01N 45°25' E 013°05'815.3
2017-Sep-08 23:31N 45°30' E 013°13'815.1
2017-Sep-08 23:00N 45°35' E 013°22'815.2
2017-Sep-08 22:30N 45°37' E 013°32'713.4
2017-Sep-08 22:01N 45°34' E 013°41'2 4.4
2017-Sep-08 21:31N 45°33' E 013°44'0 0.7
2017-Sep-08 20:58N 45°33' E 013°44'0 0.0
2017-Sep-08 20:22N 45°33' E 013°44'0 0.0
2017-Sep-08 19:55N 45°33' E 013°44'0 0.0
2017-Sep-08 19:28N 45°33' E 013°44'0 0.0
2017-Sep-08 18:58N 45°33' E 013°44'0 0.0
2017-Sep-08 18:28N 45°33' E 013°44'0 0.0
2017-Sep-08 17:58N 45°33' E 013°44'0 0.0
2017-Sep-08 17:28N 45°33' E 013°44'0 0.0
2017-Sep-08 16:58N 45°33' E 013°44'0 0.0
2017-Sep-08 16:25N 45°33' E 013°44'0 0.0
2017-Sep-08 15:58N 45°33' E 013°44'0 0.0
2017-Sep-08 15:28N 45°33' E 013°44'0 0.0
2017-Sep-08 14:58N 45°33' E 013°44'0 0.0
2017-Sep-08 14:28N 45°33' E 013°44'0 0.0
2017-Sep-08 13:58N 45°33' E 013°44'0 0.0
2017-Sep-08 13:28N 45°33' E 013°44'0 0.0
2017-Sep-08 12:58N 45°33' E 013°44'0 0.0
2017-Sep-08 12:25N 45°33' E 013°44'0 0.0
2017-Sep-08 11:58N 45°33' E 013°44'0 0.0
2017-Sep-08 11:28N 45°33' E 013°44'0 0.0
2017-Sep-08 10:58N 45°33' E 013°44'0 0.0
2017-Sep-08 10:22N 45°33' E 013°44'0 0.0
2017-Sep-08 09:58N 45°33' E 013°44'0 0.0
2017-Sep-08 09:25N 45°33' E 013°44'0 0.0
2017-Sep-08 08:58N 45°33' E 013°44'0 0.0
2017-Sep-08 08:28N 45°33' E 013°44'0 0.0
2017-Sep-08 07:58N 45°33' E 013°44'0 0.0
2017-Sep-08 07:28N 45°33' E 013°44'0 0.0
2017-Sep-08 06:58N 45°33' E 013°44'0 0.0
2017-Sep-08 06:25N 45°33' E 013°44'0 0.0
2017-Sep-08 05:58N 45°33' E 013°44'0 0.0
2017-Sep-08 05:28N 45°33' E 013°44'0 0.0
2017-Sep-08 04:58N 45°33' E 013°44'0 0.0
2017-Sep-08 04:28N 45°33' E 013°44'0 0.0
2017-Sep-08 03:55N 45°33' E 013°44'0 0.0
2017-Sep-08 03:28N 45°33' E 013°44'0 0.0
2017-Sep-08 02:58N 45°33' E 013°44'0 0.0
2017-Sep-08 02:25N 45°33' E 013°44'0 0.0
2017-Sep-08 01:58N 45°33' E 013°44'0 0.0
2017-Sep-08 01:25N 45°33' E 013°44'0 0.0
2017-Sep-08 00:58N 45°33' E 013°44'0 0.0
2017-Sep-08 00:25N 45°33' E 013°44'0 0.0
2017-Sep-07 23:58N 45°33' E 013°44'0 0.0
2017-Sep-07 23:28N 45°33' E 013°44'0 0.0
2017-Sep-07 22:55N 45°33' E 013°44'0 0.0
2017-Sep-07 22:28N 45°33' E 013°44'0 0.0
2017-Sep-07 21:58N 45°33' E 013°44'0 0.0
2017-Sep-07 21:28N 45°33' E 013°44'0 0.0
2017-Sep-07 20:58N 45°33' E 013°44'0 0.0
2017-Sep-07 20:28N 45°33' E 013°44'0 0.0
2017-Sep-07 19:58N 45°33' E 013°44'0 0.0
2017-Sep-07 19:28N 45°33' E 013°44'0 0.0
2017-Sep-07 18:58N 45°33' E 013°44'0 0.0
2017-Sep-07 18:22N 45°33' E 013°44'0 0.0
2017-Sep-07 17:58N 45°33' E 013°44'0 0.0
2017-Sep-07 17:16N 45°33' E 013°44'0 0.0
2017-Sep-07 16:55N 45°33' E 013°44'0 0.0
2017-Sep-07 16:28N 45°33' E 013°44'0 0.0
2017-Sep-07 15:58N 45°33' E 013°44'0 0.0
2017-Sep-07 15:22N 45°33' E 013°44'0 0.0
2017-Sep-07 14:58N 45°33' E 013°44'0 0.0
2017-Sep-07 14:28N 45°33' E 013°44'0 0.0
2017-Sep-07 13:58N 45°33' E 013°44'0 0.0
2017-Sep-07 13:28N 45°33' E 013°44'0 0.0
2017-Sep-07 12:58N 45°33' E 013°44'0 0.0
2017-Sep-07 12:28N 45°33' E 013°44'0 0.0
2017-Sep-07 11:58N 45°33' E 013°44'0 0.0
2017-Sep-07 11:22N 45°33' E 013°44'0 0.0
2017-Sep-07 10:55N 45°33' E 013°44'0 0.0
2017-Sep-07 10:28N 45°33' E 013°44'0 0.0
2017-Sep-07 09:58N 45°33' E 013°44'0 0.0
2017-Sep-07 09:28N 45°33' E 013°44'0 0.0
2017-Sep-07 08:58N 45°33' E 013°44'0 0.2
2017-Sep-07 08:30N 45°33' E 013°44'2 3.7
2017-Sep-07 08:00N 45°34' E 013°42'3 5.7
2017-Sep-07 07:31N 45°35' E 013°38'713.5
2017-Sep-07 07:01N 45°33' E 013°28'714.4
2017-Sep-07 06:30N 45°30' E 013°19'714.6
2017-Sep-07 06:00N 45°24' E 013°12'714.8
2017-Sep-07 05:30N 45°17' E 013°13'816.0
2017-Sep-07 05:00N 45°09' E 013°16'815.9
2017-Sep-07 04:30N 45°01' E 013°19'816.2
2017-Sep-07 04:00N 44°54' E 013°25'816.5
2017-Sep-07 03:30N 44°47' E 013°31'816.5
2017-Sep-07 03:00N 44°40' E 013°37'816.3
2017-Sep-07 02:30N 44°34' E 013°44'816.7
2017-Sep-07 02:00N 44°27' E 013°50'816.4
2017-Sep-07 01:30N 44°20' E 013°57'1816.1
2017-Sep-07 00:25N 44°05' E 014°10'32116.4
2017-Sep-06 04:48N 39°57' E 018°44'27417.5
2017-Sep-05 13:12N 36°27' E 015°01'418.5
2017-Sep-05 13:00N 36°27' E 014°57'918.9
2017-Sep-05 12:30N 36°26' E 014°45'918.6
2017-Sep-05 12:00N 36°28' E 014°34'918.8
2017-Sep-05 11:30N 36°30' E 014°22'918.7
2017-Sep-05 11:00N 36°33' E 014°11'918.7
2017-Sep-05 10:30N 36°36' E 014°00'918.7
2017-Sep-05 10:00N 36°40' E 013°49'1018.9
2017-Sep-05 09:30N 36°43' E 013°38'918.7
2017-Sep-05 09:00N 36°45' E 013°27'1018.4
2017-Sep-05 08:27N 36°48' E 013°15'918.2
2017-Sep-05 07:57N 36°51' E 013°04'36317.1
2017-Sep-04 10:43N 37°19' E 005°30'418.0
2017-Sep-04 10:28N 37°19' E 005°24'818.0
2017-Sep-04 10:00N 37°18' E 005°14'1417.9
2017-Sep-04 09:14N 37°16' E 004°56'417.6
2017-Sep-04 09:00N 37°16' E 004°51'917.8
2017-Sep-04 08:30N 37°15' E 004°40'917.8
2017-Sep-04 08:00N 37°14' E 004°29'917.3
2017-Sep-04 07:30N 37°13' E 004°18'917.0
2017-Sep-04 07:00N 37°12' E 004°07'1017.6
2017-Sep-04 06:27N 37°10' E 003°55'818.7
2017-Sep-04 06:00N 37°09' E 003°45'918.2
2017-Sep-04 05:30N 37°07' E 003°34'918.2
2017-Sep-04 05:00N 37°06' E 003°23'1118.2
2017-Sep-04 04:22N 37°04' E 003°09'718.1
2017-Sep-04 04:00N 37°03' E 003°00'917.8
2017-Sep-04 03:30N 37°01' E 002°49'917.7
2017-Sep-04 03:00N 36°60' E 002°38'917.8
2017-Sep-04 02:31N 36°58' E 002°28'917.6
2017-Sep-04 02:00N 36°57' E 002°17'917.4
2017-Sep-04 01:30N 36°55' E 002°06'917.2
2017-Sep-04 01:00N 36°54' E 001°55'917.2
2017-Sep-04 00:30N 36°53' E 001°45'1217.1
2017-Sep-03 23:49N 36°51' E 001°30'516.9
2017-Sep-03 23:31N 36°50' E 001°24'917.3
2017-Sep-03 23:01N 36°49' E 001°13'917.2
2017-Sep-03 22:30N 36°47' E 001°02'917.0
2017-Sep-03 22:00N 36°46' E 000°52'917.2
2017-Sep-03 21:30N 36°45' E 000°41'917.5
2017-Sep-03 21:01N 36°43' E 000°30'917.6
2017-Sep-03 20:31N 36°42' E 000°20'917.5
2017-Sep-03 20:01N 36°40' E 000°09'917.7
2017-Sep-03 19:30N 36°38' W 000°02'918.7
2017-Sep-03 19:00N 36°37' W 000°14'917.8
2017-Sep-03 18:31N 36°35' W 000°24'917.6
2017-Sep-03 18:00N 36°34' W 000°35'917.5
2017-Sep-03 17:31N 36°32' W 000°46'917.7
2017-Sep-03 17:00N 36°31' W 000°57'1018.2
2017-Sep-03 16:28N 36°29' W 001°09'918.6
2017-Sep-03 16:00N 36°27' W 001°19'918.6
2017-Sep-03 15:30N 36°26' W 001°31'918.4
2017-Sep-03 15:00N 36°24' W 001°42'16217.8
2017-Sep-03 05:56N 36°02' W 005°00'717.9
2017-Sep-03 05:31N 36°01' W 005°09'917.6
2017-Sep-03 05:01N 35°59' W 005°20'917.9
2017-Sep-03 04:31N 35°57' W 005°31'  
Track history (hours):
 
Tides and Currents Weather Stations Pressure Air Temp Water Temp Dewpoint Dewpoint Depression Visibility Wind Speed Wind Dir Waves Ship Positions

Prominent Ace

Last reported at 2017-Sep-13 04:19 UTC. Time now 2017-Sep-25 09:40 UTC.
Position N 30°58' E 032°19'.
Warning: this ship's position is 12 days out of date.

Length 199.5 m; beam 32.3 m.

Type: Cargo ship. MMSI: 356181000.

Date/timePositionNaut miles runAvg speedWind from/ knotsBaromVisibWave heightAir tempDewpointWater temp
2017-Sep-13 04:19N 30°58' E 032°19'3 9.7
2017-Sep-13 04:00N 31°02' E 032°19'18 8.8
2017-Sep-13 01:58N 31°19' E 032°22'3 6.2
2017-Sep-13 01:30N 31°22' E 032°23'2 4.3
2017-Sep-13 01:01N 31°23' E 032°21'1 1.5
2017-Sep-13 00:28N 31°23' E 032°20'0 0.2
2017-Sep-12 23:58N 31°23' E 032°20'0 0.0
2017-Sep-12 23:28N 31°23' E 032°20'0 0.0
2017-Sep-12 22:58N 31°23' E 032°20'0 0.0
2017-Sep-12 22:28N 31°23' E 032°20'0 0.0
2017-Sep-12 21:46N 31°23' E 032°20'0 0.0
2017-Sep-12 20:37N 31°23' E 032°20'0 0.0
2017-Sep-12 19:10N 31°23' E 032°20'0 0.1
2017-Sep-12 18:58N 31°23' E 032°20'1 1.5
2017-Sep-12 18:29N 31°23' E 032°20'612.6
2017-Sep-12 18:00N 31°28' E 032°16'813.7
2017-Sep-12 17:27N 31°34' E 032°10'613.8
2017-Sep-12 17:00N 31°38' E 032°05'813.7
2017-Sep-12 16:27N 31°43' E 031°58'613.9
2017-Sep-12 16:00N 31°47' E 031°52'714.0
2017-Sep-12 15:30N 31°50' E 031°45'713.6
2017-Sep-12 15:00N 31°52' E 031°38'2413.3
2017-Sep-12 13:10N 32°02' E 031°11'213.0
2017-Sep-12 13:00N 32°03' E 031°09'1513.2
2017-Sep-12 11:53N 32°09' E 030°53'513.5
2017-Sep-12 11:30N 32°11' E 030°47'1113.8
2017-Sep-12 10:42N 32°15' E 030°35'813.1
2017-Sep-12 10:06N 32°18' E 030°27'113.0
2017-Sep-12 10:00N 32°19' E 030°25'713.0
2017-Sep-12 09:30N 32°21' E 030°18'713.0
2017-Sep-12 09:00N 32°24' E 030°11'41013.6
2017-Sep-11 02:49N 35°27' E 022°49'26314.8
2017-Sep-10 09:06N 38°56' E 019°29'314.5
2017-Sep-10 08:54N 38°59' E 019°27'1014.9
2017-Sep-10 08:13N 39°08' E 019°22'314.9
2017-Sep-10 08:00N 39°11' E 019°20'2315.8
2017-Sep-10 06:33N 39°32' E 019°08'118.1
2017-Sep-10 06:28N 39°33' E 019°07'817.7
2017-Sep-10 06:00N 39°41' E 019°03'34814.5
2017-Sep-09 06:05N 44°07' E 014°02'117.5
2017-Sep-09 06:01N 44°08' E 014°01'815.9
2017-Sep-09 05:31N 44°15' E 013°55'714.7
2017-Sep-09 05:00N 44°21' E 013°49'714.7
2017-Sep-09 04:30N 44°27' E 013°43'714.4
2017-Sep-09 04:00N 44°33' E 013°37'714.7
2017-Sep-09 03:30N 44°39' E 013°32'714.8
2017-Sep-09 03:01N 44°45' E 013°26'714.6
2017-Sep-09 02:30N 44°51' E 013°20'714.8
2017-Sep-09 02:00N 44°57' E 013°15'715.0
2017-Sep-09 01:31N 45°04' E 013°10'815.4
2017-Sep-09 01:01N 45°11' E 013°05'815.4
2017-Sep-09 00:31N 45°18' E 013°03'714.0
2017-Sep-09 00:01N 45°25' E 013°05'815.3
2017-Sep-08 23:31N 45°30' E 013°13'815.1
2017-Sep-08 23:00N 45°35' E 013°22'815.2
2017-Sep-08 22:30N 45°37' E 013°32'713.4
2017-Sep-08 22:01N 45°34' E 013°41'2 4.4
2017-Sep-08 21:31N 45°33' E 013°44'0 0.7
2017-Sep-08 20:58N 45°33' E 013°44'0 0.0
2017-Sep-08 20:22N 45°33' E 013°44'0 0.0
2017-Sep-08 19:55N 45°33' E 013°44'0 0.0
2017-Sep-08 19:28N 45°33' E 013°44'0 0.0
2017-Sep-08 18:58N 45°33' E 013°44'0 0.0
2017-Sep-08 18:28N 45°33' E 013°44'0 0.0
2017-Sep-08 17:58N 45°33' E 013°44'0 0.0
2017-Sep-08 17:28N 45°33' E 013°44'0 0.0
2017-Sep-08 16:58N 45°33' E 013°44'0 0.0
2017-Sep-08 16:25N 45°33' E 013°44'0 0.0
2017-Sep-08 15:58N 45°33' E 013°44'0 0.0
2017-Sep-08 15:28N 45°33' E 013°44'0 0.0
2017-Sep-08 14:58N 45°33' E 013°44'0 0.0
2017-Sep-08 14:28N 45°33' E 013°44'0 0.0
2017-Sep-08 13:58N 45°33' E 013°44'0 0.0
2017-Sep-08 13:28N 45°33' E 013°44'0 0.0
2017-Sep-08 12:58N 45°33' E 013°44'0 0.0
2017-Sep-08 12:25N 45°33' E 013°44'0 0.0
2017-Sep-08 11:58N 45°33' E 013°44'0 0.0
2017-Sep-08 11:28N 45°33' E 013°44'0 0.0
2017-Sep-08 10:58N 45°33' E 013°44'0 0.0
2017-Sep-08 10:22N 45°33' E 013°44'0 0.0
2017-Sep-08 09:58N 45°33' E 013°44'0 0.0
2017-Sep-08 09:25N 45°33' E 013°44'0 0.0
2017-Sep-08 08:58N 45°33' E 013°44'0 0.0
2017-Sep-08 08:28N 45°33' E 013°44'0 0.0
2017-Sep-08 07:58N 45°33' E 013°44'0 0.0
2017-Sep-08 07:28N 45°33' E 013°44'0 0.0
2017-Sep-08 06:58N 45°33' E 013°44'0 0.0
2017-Sep-08 06:25N 45°33' E 013°44'0 0.0
2017-Sep-08 05:58N 45°33' E 013°44'0 0.0
2017-Sep-08 05:28N 45°33' E 013°44'0 0.0
2017-Sep-08 04:58N 45°33' E 013°44'0 0.0
2017-Sep-08 04:28N 45°33' E 013°44'0 0.0
2017-Sep-08 03:55N 45°33' E 013°44'0 0.0
2017-Sep-08 03:28N 45°33' E 013°44'0 0.0
2017-Sep-08 02:58N 45°33' E 013°44'0 0.0
2017-Sep-08 02:25N 45°33' E 013°44'0 0.0
2017-Sep-08 01:58N 45°33' E 013°44'0 0.0
2017-Sep-08 01:25N 45°33' E 013°44'0 0.0
2017-Sep-08 00:58N 45°33' E 013°44'0 0.0
2017-Sep-08 00:25N 45°33' E 013°44'0 0.0
2017-Sep-07 23:58N 45°33' E 013°44'0 0.0
2017-Sep-07 23:28N 45°33' E 013°44'0 0.0
2017-Sep-07 22:55N 45°33' E 013°44'0 0.0
2017-Sep-07 22:28N 45°33' E 013°44'0 0.0
2017-Sep-07 21:58N 45°33' E 013°44'0 0.0
2017-Sep-07 21:28N 45°33' E 013°44'0 0.0
2017-Sep-07 20:58N 45°33' E 013°44'0 0.0
2017-Sep-07 20:28N 45°33' E 013°44'0 0.0
2017-Sep-07 19:58N 45°33' E 013°44'0 0.0
2017-Sep-07 19:28N 45°33' E 013°44'0 0.0
2017-Sep-07 18:58N 45°33' E 013°44'0 0.0
2017-Sep-07 18:22N 45°33' E 013°44'0 0.0
2017-Sep-07 17:58N 45°33' E 013°44'0 0.0
2017-Sep-07 17:16N 45°33' E 013°44'0 0.0
2017-Sep-07 16:55N 45°33' E 013°44'0 0.0
2017-Sep-07 16:28N 45°33' E 013°44'0 0.0
2017-Sep-07 15:58N 45°33' E 013°44'0 0.0
2017-Sep-07 15:22N 45°33' E 013°44'0 0.0
2017-Sep-07 14:58N 45°33' E 013°44'0 0.0
2017-Sep-07 14:28N 45°33' E 013°44'0 0.0
2017-Sep-07 13:58N 45°33' E 013°44'0 0.0
2017-Sep-07 13:28N 45°33' E 013°44'0 0.0
2017-Sep-07 12:58N 45°33' E 013°44'0 0.0
2017-Sep-07 12:28N 45°33' E 013°44'0 0.0
2017-Sep-07 11:58N 45°33' E 013°44'0 0.0
2017-Sep-07 11:22N 45°33' E 013°44'0 0.0
2017-Sep-07 10:55N 45°33' E 013°44'0 0.0
2017-Sep-07 10:28N 45°33' E 013°44'0 0.0
2017-Sep-07 09:58N 45°33' E 013°44'0 0.0
2017-Sep-07 09:28N 45°33' E 013°44'0 0.0
2017-Sep-07 08:58N 45°33' E 013°44'0 0.2
2017-Sep-07 08:30N 45°33' E 013°44'2 3.7
2017-Sep-07 08:00N 45°34' E 013°42'3 5.7
2017-Sep-07 07:31N 45°35' E 013°38'713.5
2017-Sep-07 07:01N 45°33' E 013°28'714.4
2017-Sep-07 06:30N 45°30' E 013°19'714.6
2017-Sep-07 06:00N 45°24' E 013°12'714.8
2017-Sep-07 05:30N 45°17' E 013°13'816.0
2017-Sep-07 05:00N 45°09' E 013°16'815.9
2017-Sep-07 04:30N 45°01' E 013°19'816.2
2017-Sep-07 04:00N 44°54' E 013°25'816.5
2017-Sep-07 03:30N 44°47' E 013°31'816.5
2017-Sep-07 03:00N 44°40' E 013°37'816.3
2017-Sep-07 02:30N 44°34' E 013°44'816.7
2017-Sep-07 02:00N 44°27' E 013°50'816.4
2017-Sep-07 01:30N 44°20' E 013°57'1816.1
2017-Sep-07 00:25N 44°05' E 014°10'32116.4
2017-Sep-06 04:48N 39°57' E 018°44'27417.5
2017-Sep-05 13:12N 36°27' E 015°01'418.5
2017-Sep-05 13:00N 36°27' E 014°57'918.9
2017-Sep-05 12:30N 36°26' E 014°45'918.6
2017-Sep-05 12:00N 36°28' E 014°34'918.8
2017-Sep-05 11:30N 36°30' E 014°22'918.7
2017-Sep-05 11:00N 36°33' E 014°11'918.7
2017-Sep-05 10:30N 36°36' E 014°00'918.7
2017-Sep-05 10:00N 36°40' E 013°49'1018.9
2017-Sep-05 09:30N 36°43' E 013°38'918.7
2017-Sep-05 09:00N 36°45' E 013°27'1018.4
2017-Sep-05 08:27N 36°48' E 013°15'918.2
2017-Sep-05 07:57N 36°51' E 013°04'36317.1
2017-Sep-04 10:43N 37°19' E 005°30'418.0
2017-Sep-04 10:28N 37°19' E 005°24'818.0
2017-Sep-04 10:00N 37°18' E 005°14'1417.9
2017-Sep-04 09:14N 37°16' E 004°56'417.6
2017-Sep-04 09:00N 37°16' E 004°51'917.8
2017-Sep-04 08:30N 37°15' E 004°40'917.8
2017-Sep-04 08:00N 37°14' E 004°29'917.3
2017-Sep-04 07:30N 37°13' E 004°18'917.0
2017-Sep-04 07:00N 37°12' E 004°07'1017.6
2017-Sep-04 06:27N 37°10' E 003°55'818.7
2017-Sep-04 06:00N 37°09' E 003°45'918.2
2017-Sep-04 05:30N 37°07' E 003°34'918.2
2017-Sep-04 05:00N 37°06' E 003°23'1118.2
2017-Sep-04 04:22N 37°04' E 003°09'718.1
2017-Sep-04 04:00N 37°03' E 003°00'917.8
2017-Sep-04 03:30N 37°01' E 002°49'917.7
2017-Sep-04 03:00N 36°60' E 002°38'917.8
2017-Sep-04 02:31N 36°58' E 002°28'917.6
2017-Sep-04 02:00N 36°57' E 002°17'917.4
2017-Sep-04 01:30N 36°55' E 002°06'917.2
2017-Sep-04 01:00N 36°54' E 001°55'917.2
2017-Sep-04 00:30N 36°53' E 001°45'1217.1
2017-Sep-03 23:49N 36°51' E 001°30'516.9
2017-Sep-03 23:31N 36°50' E 001°24'917.3
2017-Sep-03 23:01N 36°49' E 001°13'917.2
2017-Sep-03 22:30N 36°47' E 001°02'917.0
2017-Sep-03 22:00N 36°46' E 000°52'917.2
2017-Sep-03 21:30N 36°45' E 000°41'917.5
2017-Sep-03 21:01N 36°43' E 000°30'917.6
2017-Sep-03 20:31N 36°42' E 000°20'917.5
2017-Sep-03 20:01N 36°40' E 000°09'917.7
2017-Sep-03 19:30N 36°38' W 000°02'918.7
2017-Sep-03 19:00N 36°37' W 000°14'917.8
2017-Sep-03 18:31N 36°35' W 000°24'917.6
2017-Sep-03 18:00N 36°34' W 000°35'917.5
2017-Sep-03 17:31N 36°32' W 000°46'917.7
2017-Sep-03 17:00N 36°31' W 000°57'1018.2
2017-Sep-03 16:28N 36°29' W 001°09'918.6
2017-Sep-03 16:00N 36°27' W 001°19'918.6
2017-Sep-03 15:30N 36°26' W 001°31'918.4
2017-Sep-03 15:00N 36°24' W 001°42'16217.8
2017-Sep-03 05:56N 36°02' W 005°00'717.9
2017-Sep-03 05:31N 36°01' W 005°09'917.6
2017-Sep-03 05:01N 35°59' W 005°20'917.9
2017-Sep-03 04:31N 35°57' W 005°31'  

Dump ship's entire track history